Flight Track Log - Related Links

Times and Time Zones

All times are in EDT time to prevent confusion due to time zone crossing. See the N70RB flight status page for this flight to view local times or setup timezone preferences in your user account.

Time Position Orientation Groundspeed Altitude Reporting Facility
EDT Latitude Longitude Course Direction KTS MPH feet Rate Location/Type
Fri 03:13:14 PM 42.2803 -85.3044 144° Southeast 114 131 2,600  Level Chicago Center
Fri 03:14:16 PM 42.3036 -85.3061 357° North 111 128 3,000 629 Climbing Chicago Center
Fri 03:15:18 PM 42.3419 -85.2906 17° North 119 137 3,900 532 Climbing Chicago Center
Fri 03:16:20 PM 42.3733 -85.2778 17° North 117 135 4,100 48 Climbing Chicago Center
Fri 03:17:00 PM 42.3065 -85.2501 304° West  Level Estimated
Fri 03:17:22 PM 42.4097 -85.2647 15° North 131 151 4,000  Level Chicago Center
Fri 03:18:00 PM 42.3065 -85.2501 144° Southeast  Level Estimated
Fri 03:18:24 PM 42.4456 -85.2478 19° North 135 155 4,000  Level Chicago Center
Fri 03:19:26 PM 42.4814 -85.2350 15° North 134 154 4,000  Level Chicago Center
Fri 03:20:28 PM 42.5253 -85.2164 17° North 136 157 4,000  Level Chicago Center
Fri 03:21:31 PM 42.5583 -85.1897 31° Northeast 139 160 4,000  Level Chicago Center
Fri 03:22:33 PM 42.5342 -85.1747 155° Southeast 129 148 4,000  Level Chicago Center
Fri 03:23:35 PM 42.5150 -85.2122 235° Southwest 124 143 4,000  Level Chicago Center
Fri 03:24:37 PM 42.5144 -85.2525 269° West 131 151 4,000  Level Chicago Center
Fri 03:25:39 PM 42.5403 -85.2242 39° Northeast 130 150 4,000  Level Chicago Center
Fri 03:26:41 PM 42.5472 -85.1706 80° East 135 155 4,000  Level Chicago Center
Fri 03:27:43 PM 42.5214 -85.1978 218° Southwest 123 142 4,000  Level Chicago Center
Fri 03:28:45 PM 42.5050 -85.2392 242° Southwest 123 142 4,000  Level Chicago Center
Fri 03:29:47 PM 42.5342 -85.2339 North 136 157 4,000  Level Chicago Center
Fri 03:30:49 PM 42.5500 -85.1828 67° East 134 154 4,000 48 Level Chicago Center
Fri 03:31:52 PM 42.5272 -85.1789 173° South 147 169 4,100  Climbing Chicago Center
Fri 03:32:54 PM 42.5081 -85.2256 241° Southwest 121 139 4,000 -48 Descending Chicago Center
Fri 03:33:56 PM 42.5286 -85.2422 329° Northwest 132 152 4,000  Level Chicago Center
Fri 03:34:58 PM 42.5453 -85.1956 64° Northeast 136 157 4,000  Level Chicago Center
Fri 03:36:00 PM 42.5253 -85.1806 151° Southeast 137 158 4,000  Level Chicago Center
Fri 03:37:02 PM 42.5092 -85.2203 241° Southwest 123 142 4,000  Level Chicago Center
Fri 03:38:04 PM 42.5336 -85.2467 322° Northwest 141 162 4,000  Level Chicago Center
Fri 03:39:06 PM 42.5414 -85.2917 283° West 129 148 4,000  Level Chicago Center
Fri 03:40:08 PM 42.5553 -85.3369 293° West 129 148 4,000  Level Chicago Center
Fri 03:41:10 PM 42.5694 -85.3789 295° West 126 145 4,000  Level Chicago Center
Fri 03:42:13 PM 42.5839 -85.4236 294° West 128 147 4,000  Level Chicago Center
Fri 03:43:15 PM 42.5814 -85.4667 266° West 127 146 4,000  Level Chicago Center
Fri 03:44:17 PM 42.5564 -85.5011 225° Southwest 134 154 4,000  Level Chicago Center
Fri 03:45:19 PM 42.5692 -85.4633 65° Northeast 140 161 4,000  Level Chicago Center
Fri 03:46:21 PM 42.5906 -85.4264 52° Northeast 134 154 4,000 -48 Level Chicago Center
Fri 03:47:23 PM 42.5656 -85.4208 171° South 137 158 3,900  Descending Chicago Center
Fri 03:48:25 PM 42.5550 -85.4661 252° West 128 147 4,000 48 Climbing Chicago Center
Fri 03:49:27 PM 42.5739 -85.4831 327° Northwest 127 146 4,000 48 Level Chicago Center
Fri 03:50:30 PM 42.5900 -85.4239 70° East 137 158 4,100  Climbing Chicago Center
Fri 03:51:32 PM 42.5650 -85.4258 183° South 133 153 4,000  Descending Chicago Center
Fri 03:52:34 PM 42.5544 -85.4672 251° West 119 137 4,100  Climbing Chicago Center
Fri 03:53:36 PM 42.5789 -85.4797 339° North 139 160 4,000  Descending Chicago Center
Fri 03:54:38 PM 42.5903 -85.4272 74° East 143 165 4,100  Climbing Chicago Center
Fri 03:55:40 PM 42.5664 -85.4286 182° South 133 153 4,000 -48 Descending Chicago Center
Fri 03:56:42 PM 42.5547 -85.4728 250° West 126 145 4,000 -48 Level Chicago Center
Fri 03:57:44 PM 42.5828 -85.4689 North 137 158 3,900  Descending Chicago Center
Fri 03:58:46 PM 42.5931 -85.4197 74° East 137 158 4,000 48 Climbing Chicago Center
Fri 03:59:49 PM 42.5683 -85.4289 195° South 126 145 4,000  Level Chicago Center
Fri 04:00:51 PM 42.5583 -85.4714 252° West 120 138 4,000  Level Chicago Center
Fri 04:01:53 PM 42.5856 -85.4550 24° Northeast 130 150 4,000  Level Chicago Center
Fri 04:02:55 PM 42.5875 -85.4092 87° East 136 157 4,000  Level Chicago Center
Fri 04:03:57 PM 42.5681 -85.4383 228° Southwest 124 143 4,000  Level Chicago Center
Fri 04:04:59 PM 42.5411 -85.4478 194° South 126 145 4,000  Level Chicago Center
Fri 04:06:01 PM 42.5392 -85.3953 93° East 137 158 4,000  Level Chicago Center
Fri 04:07:03 PM 42.5383 -85.3431 91° East 140 161 4,000  Level Chicago Center
Fri 04:08:05 PM 42.5378 -85.2811 91° East 138 159 4,000  Level Chicago Center
Fri 04:09:07 PM 42.5372 -85.2278 91° East 140 161 4,000 -192 Level Chicago Center
Fri 04:10:10 PM 42.5172 -85.1833 121° Southeast 140 161 3,600 -576 Descending Chicago Center
Fri 04:11:12 PM 42.4900 -85.1436 133° Southeast 145 167 2,800 -532 Descending Chicago Center
Fri 04:12:14 PM 42.4625 -85.1025 132° Southeast 145 167 2,500 -290 Descending Chicago Center
Fri 04:13:16 PM 42.4325 -85.0972 173° South 156 180 2,200 -145 Descending Chicago Center
Fri 04:14:18 PM 42.4033 -85.1339 223° Southwest 133 153 2,200  Level Chicago Center
Fri 04:15:20 PM 42.3767 -85.1653 221° Southwest 124 143 2,200 -48 Level Chicago Center
Fri 04:16:22 PM 42.3556 -85.1936 225° Southwest 119 137 2,100 -387 Descending Chicago Center
Fri 04:17:24 PM 42.3331 -85.2236 225° Southwest 107 123 1,400 -677 Descending Chicago Center

Login

Don't have an account? Register now (free) for customized features, flight alerts, and more!